sensor_id;sensor_type;location;lat;lon;timestamp;temperature;humidity
71551;DHT22;59367;48.414;9.872;2022-11-24T00:00:02;8.019378662;70.83129883
71551;DHT22;59367;48.414;9.872;2022-11-24T00:01:10;7.976654053;70.74584961
71551;DHT22;59367;48.414;9.872;2022-11-24T00:02:16;7.990005493;70.75805664
71551;DHT22;59367;48.414;9.872;2022-11-24T00:03:23;7.963302612;70.65734863
71551;DHT22;59367;48.414;9.872;2022-11-24T00:04:29;7.933929443;70.54443359
71551;DHT22;59367;48.414;9.872;2022-11-24T00:05:36;7.904556274;70.40557861
71551;DHT22;59367;48.414;9.872;2022-11-24T00:06:43;7.891204834;70.24993896
71551;DHT22;59367;48.414;9.872;2022-11-24T00:07:49;7.84847641;70.21026611
71551;DHT22;59367;48.414;9.872;2022-11-24T00:08:56;7.835124969;70.14160156
71551;DHT22;59367;48.414;9.872;2022-11-24T00:10:02;7.821773529;70.13092041
71551;DHT22;59367;48.414;9.872;2022-11-24T00:11:11;7.808422089;69.96307373
71551;DHT22;59367;48.414;9.872;2022-11-24T00:12:18;7.765697479;69.78302002
71551;DHT22;59367;48.414;9.872;2022-11-24T00:13:24;7.765697479;69.69604492
71551;DHT22;59367;48.414;9.872;2022-11-24T00:14:30;7.749675751;69.61517334
71551;DHT22;59367;48.414;9.872;2022-11-24T00:15:37;7.749675751;69.43206787
71551;DHT22;59367;48.414;9.872;2022-11-24T00:16:43;7.73632431;68.99719238
71551;DHT22;59367;48.414;9.872;2022-11-24T00:17:49;7.690929413;68.74847412
71551;DHT22;59367;48.414;9.872;2022-11-24T00:18:56;7.690929413;68.46923828
71551;DHT22;59367;48.414;9.872;2022-11-24T00:20:03;7.650875092;68.43261719
71551;DHT22;59367;48.414;9.872;2022-11-24T00:21:10;7.664226532;68.45550537
71551;DHT22;59367;48.414;9.872;2022-11-24T00:22:16;7.608146667;68.42498779
71551;DHT22;59367;48.414;9.872;2022-11-24T00:23:22;7.578773499;68.26477051
71551;DHT22;59367;48.414;9.872;2022-11-24T00:24:28;7.565422058;68.16711426
71551;DHT22;59367;48.414;9.872;2022-11-24T00:25:34;7.522697449;68.18084717
71551;DHT22;59367;48.414;9.872;2022-11-24T00:26:40;7.495994568;68.21289063
71551;DHT22;59367;48.414;9.872;2022-11-24T00:27:46;7.479972839;68.31512451
71551;DHT22;59367;48.414;9.872;2022-11-24T00:28:54;7.43724823;68.20373535
71551;DHT22;59367;48.414;9.872;2022-11-24T00:30:00;7.38117218;68.19152832
71551;DHT22;59367;48.414;9.872;2022-11-24T00:31:16;7.354465485;68.409729
71551;DHT22;59367;48.414;9.872;2022-11-24T00:32:22;7.311740875;68.59436035
71551;DHT22;59367;48.414;9.872;2022-11-24T00:33:29;7.298389435;68.71643066
71551;DHT22;59367;48.414;9.872;2022-11-24T00:34:35;7.282367706;68.7713623
71551;DHT22;59367;48.414;9.872;2022-11-24T00:35:41;7.242313385;68.55163574
71551;DHT22;59367;48.414;9.872;2022-11-24T00:36:47;7.226291656;68.44329834
71551;DHT22;59367;48.414;9.872;2022-11-24T00:37:53;7.199588776;68.46618652
71551;DHT22;59367;48.414;9.872;2022-11-24T00:39:01;7.156864166;68.51959229
71551;DHT22;59367;48.414;9.872;2022-11-24T00:40:10;7.156864166;68.6126709
71551;DHT22;59367;48.414;9.872;2022-11-24T00:41:16;7.127490997;68.51196289
71551;DHT22;59367;48.414;9.872;2022-11-24T00:42:22;7.100784302;68.34564209
71551;DHT22;59367;48.414;9.872;2022-11-24T00:43:28;7.087432861;68.409729
71551;DHT22;59367;48.414;9.872;2022-11-24T00:44:35;7.058059692;68.18237305
71551;DHT22;59367;48.414;9.872;2022-11-24T00:45:41;7.028686523;68.19610596
71551;DHT22;59367;48.414;9.872;2022-11-24T00:46:47;6.988632202;68.23730469
71551;DHT22;59367;48.414;9.872;2022-11-24T00:47:53;6.972610474;68.14880371
71551;DHT22;59367;48.414;9.872;2022-11-24T00:49:00;6.972610474;67.99468994
71551;DHT22;59367;48.414;9.872;2022-11-24T00:50:07;6.932556152;68.05419922
71551;DHT22;59367;48.414;9.872;2022-11-24T00:51:16;6.903182983;68.1854248
71551;DHT22;59367;48.414;9.872;2022-11-24T00:52:22;6.860454559;68.02215576
71551;DHT22;59367;48.414;9.872;2022-11-24T00:53:29;6.847103119;67.76123047
71551;DHT22;59367;48.414;9.872;2022-11-24T00:54:35;6.833751678;67.80700684
71551;DHT22;59367;48.414;9.872;2022-11-24T00:55:41;6.791027069;67.70477295
71551;DHT22;59367;48.414;9.872;2022-11-24T00:56:47;6.777675629;67.77801514
71551;DHT22;59367;48.414;9.872;2022-11-24T00:57:53;6.718929291;68.0267334
71551;DHT22;59367;48.414;9.872;2022-11-24T00:58:59;6.70557785;68.12133789
71551;DHT22;59367;48.414;9.872;2022-11-24T01:00:06;6.678874969;68.27850342
71551;DHT22;59367;48.414;9.872;2022-11-24T01:01:15;6.678874969;68.43261719
71551;DHT22;59367;48.414;9.872;2022-11-24T01:02:21;6.649501801;68.3013916
71551;DHT22;59367;48.414;9.872;2022-11-24T01:03:27;6.622795105;68.24951172
71551;DHT22;59367;48.414;9.872;2022-11-24T01:04:33;6.590751648;68.21746826
71551;DHT22;59367;48.414;9.872;2022-11-24T01:05:40;6.590751648;68.20526123
71551;DHT22;59367;48.414;9.872;2022-11-24T01:06:47;6.561378479;68.02978516
71551;DHT22;59367;48.414;9.872;2022-11-24T01:07:53;6.548027039;67.9977417
71551;DHT22;59367;48.414;9.872;2022-11-24T01:08:59;6.491950989;67.9977417
71551;DHT22;59367;48.414;9.872;2022-11-24T01:10:06;6.478599548;68.00384521
71551;DHT22;59367;48.414;9.872;2022-11-24T01:11:15;6.465248108;68.28765869
71551;DHT22;59367;48.414;9.872;2022-11-24T01:12:22;6.422523499;68.1854248
71551;DHT22;59367;48.414;9.872;2022-11-24T01:13:28;6.39315033;67.99926758
71551;DHT22;59367;48.414;9.872;2022-11-24T01:14:34;6.39315033;68.03894043
71551;DHT22;59367;48.414;9.872;2022-11-24T01:15:40;6.379798889;68.11218262
71551;DHT22;59367;48.414;9.872;2022-11-24T01:16:47;6.350421906;67.91229248
71551;DHT22;59367;48.414;9.872;2022-11-24T01:17:53;6.307697296;67.88787842
71551;DHT22;59367;48.414;9.872;2022-11-24T01:18:59;6.280994415;67.97027588
71551;DHT22;59367;48.414;9.872;2022-11-24T01:20:07;6.280994415;67.98858643
71551;DHT22;59367;48.414;9.872;2022-11-24T01:21:13;6.224918365;68.20831299
71551;DHT22;59367;48.414;9.872;2022-11-24T01:22:20;6.211566925;68.359375
71551;DHT22;59367;48.414;9.872;2022-11-24T01:23:26;6.211566925;68.12744141
71551;DHT22;59367;48.414;9.872;2022-11-24T01:24:32;6.195545197;67.84820557
71551;DHT22;59367;48.414;9.872;2022-11-24T01:25:41;6.168842316;67.87414551
71551;DHT22;59367;48.414;9.872;2022-11-24T01:26:47;6.126117706;67.72003174
71551;DHT22;59367;48.414;9.872;2022-11-24T01:27:53;6.126117706;67.62695313
71551;DHT22;59367;48.414;9.872;2022-11-24T01:29:00;6.083389282;67.6361084
71551;DHT22;59367;48.414;9.872;2022-11-24T01:30:08;6.070037842;67.4911499
71551;DHT22;59367;48.414;9.872;2022-11-24T01:31:15;6.027313232;67.37060547
71551;DHT22;59367;48.414;9.872;2022-11-24T01:32:21;6.013961792;67.25158691
71551;DHT22;59367;48.414;9.872;2022-11-24T01:33:27;5.971237183;67.24395752
71551;DHT22;59367;48.414;9.872;2022-11-24T01:34:34;5.915161133;67.28363037
71551;DHT22;59367;48.414;9.872;2022-11-24T01:35:40;5.928512573;67.16918945
71551;DHT22;59367;48.414;9.872;2022-11-24T01:36:45;5.901809692;67.41333008
71551;DHT22;59367;48.414;9.872;2022-11-24T01:37:51;5.872432709;67.37060547
71551;DHT22;59367;48.414;9.872;2022-11-24T01:38:58;5.859081268;67.45452881
71551;DHT22;59367;48.414;9.872;2022-11-24T01:40:04;5.84305954;67.38433838
71551;DHT22;59367;48.414;9.872;2022-11-24T01:41:13;5.803005219;67.41638184
71551;DHT22;59367;48.414;9.872;2022-11-24T01:42:20;5.746929169;67.47283936
71551;DHT22;59367;48.414;9.872;2022-11-24T01:43:26;5.760280609;67.58117676
71551;DHT22;59367;48.414;9.872;2022-11-24T01:44:33;5.746929169;67.75054932
71551;DHT22;59367;48.414;9.872;2022-11-24T01:45:40;5.704204559;67.81005859
71551;DHT22;59367;48.414;9.872;2022-11-24T01:46:48;5.688182831;67.88330078
71551;DHT22;59367;48.414;9.872;2022-11-24T01:47:57;5.66147995;68.17626953
71551;DHT22;59367;48.414;9.872;2022-11-24T01:49:10;5.64812851;68.35479736
71551;DHT22;59367;48.414;9.872;2022-11-24T01:50:18;5.632106781;68.25561523
71551;DHT22;59367;48.414;9.872;2022-11-24T01:51:27;5.632106781;68.15032959
71551;DHT22;59367;48.414;9.872;2022-11-24T01:52:38;5.592048645;68.26782227
71551;DHT22;59367;48.414;9.872;2022-11-24T01:53:48;5.592048645;68.55316162
71551;DHT22;59367;48.414;9.872;2022-11-24T01:54:58;5.605400085;68.92852783
71551;DHT22;59367;48.414;9.872;2022-11-24T01:56:06;5.576026917;68.94226074
71551;DHT22;59367;48.414;9.872;2022-11-24T01:57:18;5.592048645;68.93615723
71551;DHT22;59367;48.414;9.872;2022-11-24T01:58:28;5.605400085;69.03381348
71551;DHT22;59367;48.414;9.872;2022-11-24T01:59:35;5.605400085;69.0826416
71551;DHT22;59367;48.414;9.872;2022-11-24T02:00:43;5.576026917;69.17114258
71551;DHT22;59367;48.414;9.872;2022-11-24T02:01:52;5.592048645;69.24285889
71551;DHT22;59367;48.414;9.872;2022-11-24T02:02:59;5.576026917;69.27642822
71551;DHT22;59367;48.414;9.872;2022-11-24T02:04:10;5.562675476;69.21691895
71551;DHT22;59367;48.414;9.872;2022-11-24T02:05:20;5.592048645;69.30847168
71551;DHT22;59367;48.414;9.872;2022-11-24T02:06:29;5.618751526;69.39086914
71551;DHT22;59367;48.414;9.872;2022-11-24T02:07:36;5.618751526;69.52362061
71551;DHT22;59367;48.414;9.872;2022-11-24T02:08:46;5.618751526;69.6105957
71551;DHT22;59367;48.414;9.872;2022-11-24T02:09:58;5.632106781;69.42138672
71551;DHT22;59367;48.414;9.872;2022-11-24T02:11:06;5.592048645;69.3862915
71551;DHT22;59367;48.414;9.872;2022-11-24T02:12:13;5.632106781;69.53582764
71551;DHT22;59367;48.414;9.872;2022-11-24T02:13:19;5.618751526;69.51446533
71551;DHT22;59367;48.414;9.872;2022-11-24T02:14:27;5.64812851;69.39544678
71551;DHT22;59367;48.414;9.872;2022-11-24T02:15:33;5.618751526;69.28405762
71551;DHT22;59367;48.414;9.872;2022-11-24T02:16:41;5.67483139;69.43054199
71551;DHT22;59367;48.414;9.872;2022-11-24T02:17:48;5.66147995;69.56939697
71551;DHT22;59367;48.414;9.872;2022-11-24T02:18:54;5.632106781;69.77539063
71551;DHT22;59367;48.414;9.872;2022-11-24T02:20:02;5.66147995;69.89440918
71551;DHT22;59367;48.414;9.872;2022-11-24T02:21:09;5.66147995;69.96154785
71551;DHT22;59367;48.414;9.872;2022-11-24T02:22:20;5.688182831;70.00427246
71551;DHT22;59367;48.414;9.872;2022-11-24T02:23:35;5.67483139;70.10803223
71551;DHT22;59367;48.414;9.872;2022-11-24T02:24:48;5.704204559;70.05462646
71551;DHT22;59367;48.414;9.872;2022-11-24T02:26:02;5.746929169;70.17822266
71551;DHT22;59367;48.414;9.872;2022-11-24T02:27:09;5.746929169;70.29266357
71551;DHT22;59367;48.414;9.872;2022-11-24T02:28:19;5.746929169;70.41625977
71551;DHT22;59367;48.414;9.872;2022-11-24T02:29:26;5.77363205;70.55664063
71551;DHT22;59367;48.414;9.872;2022-11-24T02:30:33;5.803005219;70.89691162
71551;DHT22;59367;48.414;9.872;2022-11-24T02:31:40;5.829708099;71.08459473
71551;DHT22;59367;48.414;9.872;2022-11-24T02:32:48;5.859081268;71.16699219
71551;DHT22;59367;48.414;9.872;2022-11-24T02:33:55;5.872432709;70.98693848
71551;DHT22;59367;48.414;9.872;2022-11-24T02:35:07;5.885787964;71.10290527
71551;DHT22;59367;48.414;9.872;2022-11-24T02:36:14;5.928512573;71.26617432
71551;DHT22;59367;48.414;9.872;2022-11-24T02:37:20;5.915161133;71.08001709
71551;DHT22;59367;48.414;9.872;2022-11-24T02:38:34;5.928512573;70.70007324
71551;DHT22;59367;48.414;9.872;2022-11-24T02:39:40;5.971237183;70.3338623
71551;DHT22;59367;48.414;9.872;2022-11-24T02:40:48;5.957885742;69.93103027
71551;DHT22;59367;48.414;9.872;2022-11-24T02:41:57;5.971237183;69.51293945
71551;DHT22;59367;48.414;9.872;2022-11-24T02:43:08;5.997940063;69.23065186
71551;DHT22;59367;48.414;9.872;2022-11-24T02:44:17;5.984588623;68.97888184
71551;DHT22;59367;48.414;9.872;2022-11-24T02:45:25;5.984588623;68.87207031
71551;DHT22;59367;48.414;9.872;2022-11-24T02:47:38;5.941864014;69.08721924
71551;DHT22;59367;48.414;9.872;2022-11-24T02:48:44;5.971237183;69.12994385
71551;DHT22;59367;48.414;9.872;2022-11-24T02:49:51;5.997940063;69.04754639
71551;DHT22;59367;48.414;9.872;2022-11-24T02:50:58;5.984588623;69.05517578
71551;DHT22;59367;48.414;9.872;2022-11-24T02:52:05;5.971237183;69.18487549
71551;DHT22;59367;48.414;9.872;2022-11-24T02:53:12;5.971237183;69.29321289
71551;DHT22;59367;48.414;9.872;2022-11-24T02:54:18;5.971237183;69.43511963
71551;DHT22;59367;48.414;9.872;2022-11-24T02:55:25;5.941864014;69.46868896
71551;DHT22;59367;48.414;9.872;2022-11-24T02:56:31;5.957885742;69.52819824
71551;DHT22;59367;48.414;9.872;2022-11-24T02:57:38;5.971237183;69.62738037
71551;DHT22;59367;48.414;9.872;2022-11-24T02:58:45;5.984588623;69.47631836
71551;DHT22;59367;48.414;9.872;2022-11-24T02:59:52;5.984588623;69.65942383
71551;DHT22;59367;48.414;9.872;2022-11-24T03:00:58;5.984588623;69.7052002
71551;DHT22;59367;48.414;9.872;2022-11-24T03:02:05;5.984588623;69.58312988
71551;DHT22;59367;48.414;9.872;2022-11-24T03:03:12;5.984588623;69.52362061
71551;DHT22;59367;48.414;9.872;2022-11-24T03:04:19;5.997940063;69.32525635
71551;DHT22;59367;48.414;9.872;2022-11-24T03:05:26;5.957885742;69.23065186
71551;DHT22;59367;48.414;9.872;2022-11-24T03:06:32;5.971237183;68.86291504
71551;DHT22;59367;48.414;9.872;2022-11-24T03:07:39;5.971237183;68.88122559
71551;DHT22;59367;48.414;9.872;2022-11-24T03:08:45;5.928512573;69.01855469
71551;DHT22;59367;48.414;9.872;2022-11-24T03:09:52;5.941864014;69.02770996
71551;DHT22;59367;48.414;9.872;2022-11-24T03:10:59;5.928512573;69.07348633
71551;DHT22;59367;48.414;9.872;2022-11-24T03:12:06;5.901809692;69.15588379
71551;DHT22;59367;48.414;9.872;2022-11-24T03:13:13;5.928512573;69.17877197
71551;DHT22;59367;48.414;9.872;2022-11-24T03:14:19;5.901809692;69.19403076
71551;DHT22;59367;48.414;9.872;2022-11-24T03:15:26;5.915161133;69.32067871
71551;DHT22;59367;48.414;9.872;2022-11-24T03:16:33;5.915161133;69.32067871
71551;DHT22;59367;48.414;9.872;2022-11-24T03:17:40;5.915161133;69.48242188
71551;DHT22;59367;48.414;9.872;2022-11-24T03:18:47;5.901809692;69.68231201
71551;DHT22;59367;48.414;9.872;2022-11-24T03:19:56;5.901809692;69.82421875
71551;DHT22;59367;48.414;9.872;2022-11-24T03:21:04;5.859081268;69.95239258
71551;DHT22;59367;48.414;9.872;2022-11-24T03:22:11;5.885787964;69.88067627
71551;DHT22;59367;48.414;9.872;2022-11-24T03:23:17;5.915161133;69.67468262
71551;DHT22;59367;48.414;9.872;2022-11-24T03:24:24;5.901809692;69.3359375
71551;DHT22;59367;48.414;9.872;2022-11-24T03:25:31;5.885787964;69.30389404
71551;DHT22;59367;48.414;9.872;2022-11-24T03:26:38;5.872432709;69.13909912
71551;DHT22;59367;48.414;9.872;2022-11-24T03:27:44;5.901809692;69.07806396
71551;DHT22;59367;48.414;9.872;2022-11-24T03:28:51;5.885787964;68.96972656
71551;DHT22;59367;48.414;9.872;2022-11-24T03:29:58;5.872432709;68.93157959
71551;DHT22;59367;48.414;9.872;2022-11-24T03:31:04;5.84305954;69.00939941
71551;DHT22;59367;48.414;9.872;2022-11-24T03:32:11;5.829708099;69.18029785
71551;DHT22;59367;48.414;9.872;2022-11-24T03:33:18;5.829708099;69.14215088
71551;DHT22;59367;48.414;9.872;2022-11-24T03:34:24;5.803005219;69.45343018
71551;DHT22;59367;48.414;9.872;2022-11-24T03:35:30;5.816356659;69.74334717
71551;DHT22;59367;48.414;9.872;2022-11-24T03:36:37;5.803005219;69.98901367
71551;DHT22;59367;48.414;9.872;2022-11-24T03:37:43;5.78698349;69.85168457
71551;DHT22;59367;48.414;9.872;2022-11-24T03:38:50;5.803005219;69.70977783
71551;DHT22;59367;48.414;9.872;2022-11-24T03:39:57;5.78698349;69.56481934
71551;DHT22;59367;48.414;9.872;2022-11-24T03:41:03;5.78698349;69.43054199
71551;DHT22;59367;48.414;9.872;2022-11-24T03:42:10;5.77363205;69.2565918
71551;DHT22;59367;48.414;9.872;2022-11-24T03:43:16;5.78698349;69.14367676
71551;DHT22;59367;48.414;9.872;2022-11-24T03:44:23;5.746929169;68.98345947
71551;DHT22;59367;48.414;9.872;2022-11-24T03:45:29;5.746929169;68.86749268
71551;DHT22;59367;48.414;9.872;2022-11-24T03:46:36;5.717556;68.81713867
71551;DHT22;59367;48.414;9.872;2022-11-24T03:47:42;5.73090744;68.86444092
71551;DHT22;59367;48.414;9.872;2022-11-24T03:48:48;5.746929169;69.12841797
71551;DHT22;59367;48.414;9.872;2022-11-24T03:49:55;5.717556;69.45495605
71551;DHT22;59367;48.414;9.872;2022-11-24T03:51:03;5.704204559;69.76013184
71551;DHT22;59367;48.414;9.872;2022-11-24T03:52:10;5.704204559;70.03631592
71551;DHT22;59367;48.414;9.872;2022-11-24T03:53:17;5.717556;70.48797607
71551;DHT22;59367;48.414;9.872;2022-11-24T03:54:24;5.688182831;70.78094482
71551;DHT22;59367;48.414;9.872;2022-11-24T03:55:31;5.717556;70.9564209
71551;DHT22;59367;48.414;9.872;2022-11-24T03:56:37;5.746929169;71.13494873
71551;DHT22;59367;48.414;9.872;2022-11-24T03:57:43;5.73090744;71.24786377
71551;DHT22;59367;48.414;9.872;2022-11-24T03:58:50;5.760280609;71.4630127
71551;DHT22;59367;48.414;9.872;2022-11-24T03:59:56;5.760280609;71.75140381
71551;DHT22;59367;48.414;9.872;2022-11-24T04:01:03;5.78698349;71.79412842
71551;DHT22;59367;48.414;9.872;2022-11-24T04:02:09;5.816356659;71.84753418
71551;DHT22;59367;48.414;9.872;2022-11-24T04:03:16;5.84305954;72.10083008
71551;DHT22;59367;48.414;9.872;2022-11-24T04:04:23;5.872432709;72.54486084
71551;DHT22;59367;48.414;9.872;2022-11-24T04:05:29;5.915161133;72.57232666
71551;DHT22;59367;48.414;9.872;2022-11-24T04:06:36;5.915161133;72.52655029
71551;DHT22;59367;48.414;9.872;2022-11-24T04:07:42;5.928512573;72.49908447
71551;DHT22;59367;48.414;9.872;2022-11-24T04:08:49;5.957885742;72.50366211
71551;DHT22;59367;48.414;9.872;2022-11-24T04:09:55;5.984588623;72.49298096
71551;DHT22;59367;48.414;9.872;2022-11-24T04:11:02;6.027313232;72.50213623
71551;DHT22;59367;48.414;9.872;2022-11-24T04:12:09;6.070037842;72.47161865
71551;DHT22;59367;48.414;9.872;2022-11-24T04:13:18;6.083389282;72.4105835
71551;DHT22;59367;48.414;9.872;2022-11-24T04:14:25;6.096740723;72.58911133
71551;DHT22;59367;48.414;9.872;2022-11-24T04:15:31;6.112762451;72.74017334
71551;DHT22;59367;48.414;9.872;2022-11-24T04:16:38;6.152820587;72.91564941
71551;DHT22;59367;48.414;9.872;2022-11-24T04:17:45;6.211566925;73.03009033
71551;DHT22;59367;48.414;9.872;2022-11-24T04:18:53;6.224918365;73.06060791
71551;DHT22;59367;48.414;9.872;2022-11-24T04:20:00;6.251621246;73.21624756
71551;DHT22;59367;48.414;9.872;2022-11-24T04:21:07;6.294345856;73.41003418
71551;DHT22;59367;48.414;9.872;2022-11-24T04:22:14;6.323719025;73.5824585
71551;DHT22;59367;48.414;9.872;2022-11-24T04:23:21;6.366443634;73.44207764
71551;DHT22;59367;48.414;9.872;2022-11-24T04:24:27;6.39315033;73.17657471
71551;DHT22;59367;48.414;9.872;2022-11-24T04:25:34;6.422523499;73.28643799
71551;DHT22;59367;48.414;9.872;2022-11-24T04:26:40;6.435874939;73.39019775
71551;DHT22;59367;48.414;9.872;2022-11-24T04:27:49;6.491950989;73.35510254
71551;DHT22;59367;48.414;9.872;2022-11-24T04:28:56;6.521324158;73.30474854
71551;DHT22;59367;48.414;9.872;2022-11-24T04:30:02;6.548027039;73.3001709
71551;DHT22;59367;48.414;9.872;2022-11-24T04:31:09;6.590751648;73.30932617
71551;DHT22;59367;48.414;9.872;2022-11-24T04:32:16;6.622795105;73.23150635
71551;DHT22;59367;48.414;9.872;2022-11-24T04:33:22;6.678874969;73.10333252
71551;DHT22;59367;48.414;9.872;2022-11-24T04:34:29;6.649501801;73.02398682
71551;DHT22;59367;48.414;9.872;2022-11-24T04:35:35;6.69222641;72.96447754
71551;DHT22;59367;48.414;9.872;2022-11-24T04:36:42;6.74830246;72.86376953
71551;DHT22;59367;48.414;9.872;2022-11-24T04:37:49;6.777675629;73.43139648
71551;DHT22;59367;48.414;9.872;2022-11-24T04:38:57;6.734951019;74.15008545
71551;DHT22;59367;48.414;9.872;2022-11-24T04:40:04;6.74830246;74.22790527
71551;DHT22;59367;48.414;9.872;2022-11-24T04:41:11;6.791027069;74.43847656
71551;DHT22;59367;48.414;9.872;2022-11-24T04:42:18;6.81772995;74.65057373
71551;DHT22;59367;48.414;9.872;2022-11-24T04:43:24;6.80437851;74.72229004
71551;DHT22;59367;48.414;9.872;2022-11-24T04:44:31;6.847103119;74.76806641
71551;DHT22;59367;48.414;9.872;2022-11-24T04:45:37;6.847103119;74.75891113
71551;DHT22;59367;48.414;9.872;2022-11-24T04:46:43;6.903182983;74.8550415
71551;DHT22;59367;48.414;9.872;2022-11-24T04:47:50;6.916534424;74.96948242
71551;DHT22;59367;48.414;9.872;2022-11-24T04:48:56;6.945907593;74.93743896
71551;DHT22;59367;48.414;9.872;2022-11-24T04:50:03;6.959259033;74.8840332
71551;DHT22;59367;48.414;9.872;2022-11-24T04:51:10;7.044708252;74.76959229
71551;DHT22;59367;48.414;9.872;2022-11-24T04:52:17;7.058059692;74.69940186
71551;DHT22;59367;48.414;9.872;2022-11-24T04:53:24;7.087432861;74.51782227
71551;DHT22;59367;48.414;9.872;2022-11-24T04:54:31;7.114135742;74.51324463
71551;DHT22;59367;48.414;9.872;2022-11-24T04:55:40;7.170215607;74.43389893
71551;DHT22;59367;48.414;9.872;2022-11-24T04:56:48;7.199588776;74.3347168
71551;DHT22;59367;48.414;9.872;2022-11-24T04:57:55;7.212940216;74.31945801
71551;DHT22;59367;48.414;9.872;2022-11-24T04:59:02;7.269016266;74.26452637
71551;DHT22;59367;48.414;9.872;2022-11-24T05:00:10;7.269016266;74.15161133
71551;DHT22;59367;48.414;9.872;2022-11-24T05:01:17;7.311740875;73.96392822
71551;DHT22;59367;48.414;9.872;2022-11-24T05:02:24;7.338443756;73.80218506
71551;DHT22;59367;48.414;9.872;2022-11-24T05:03:30;7.367816925;73.67553711
71551;DHT22;59367;48.414;9.872;2022-11-24T05:04:37;7.38117218;73.59619141
71551;DHT22;59367;48.414;9.872;2022-11-24T05:05:44;7.367816925;73.58398438
71551;DHT22;59367;48.414;9.872;2022-11-24T05:06:50;7.38117218;73.60534668
71551;DHT22;59367;48.414;9.872;2022-11-24T05:07:57;7.38117218;73.56872559
71551;DHT22;59367;48.414;9.872;2022-11-24T05:09:04;7.410545349;73.53668213
71551;DHT22;59367;48.414;9.872;2022-11-24T05:10:11;7.42389679;73.53820801
71551;DHT22;59367;48.414;9.872;2022-11-24T05:11:18;7.453269958;73.51531982
71551;DHT22;59367;48.414;9.872;2022-11-24T05:12:25;7.43724823;73.60534668
71551;DHT22;59367;48.414;9.872;2022-11-24T05:13:32;7.453269958;73.67553711
71551;DHT22;59367;48.414;9.872;2022-11-24T05:14:39;7.495994568;73.60992432
71551;DHT22;59367;48.414;9.872;2022-11-24T05:15:45;7.495994568;73.60076904
71551;DHT22;59367;48.414;9.872;2022-11-24T05:16:53;7.536048889;73.51379395
71551;DHT22;59367;48.414;9.872;2022-11-24T05:18:00;7.565422058;73.48175049
71551;DHT22;59367;48.414;9.872;2022-11-24T05:19:08;7.565422058;73.49090576
71551;DHT22;59367;48.414;9.872;2022-11-24T05:21:21;7.592124939;73.50616455
71551;DHT22;59367;48.414;9.872;2022-11-24T05:22:30;7.608146667;73.50921631
71551;DHT22;59367;48.414;9.872;2022-11-24T05:23:37;7.634853363;73.47717285
71551;DHT22;59367;48.414;9.872;2022-11-24T05:24:44;7.677577972;73.38256836
71551;DHT22;59367;48.414;9.872;2022-11-24T05:25:52;7.690929413;73.28186035
71551;DHT22;59367;48.414;9.872;2022-11-24T05:26:59;7.73632431;73.09417725
71551;DHT22;59367;48.414;9.872;2022-11-24T05:28:07;7.765697479;72.84698486
71551;DHT22;59367;48.414;9.872;2022-11-24T05:29:14;7.765697479;72.7142334
71551;DHT22;59367;48.414;9.872;2022-11-24T05:30:21;7.765697479;72.60284424
71551;DHT22;59367;48.414;9.872;2022-11-24T05:31:28;7.79240036;72.42126465
71551;DHT22;59367;48.414;9.872;2022-11-24T05:32:35;7.808422089;72.06878662
71551;DHT22;59367;48.414;9.872;2022-11-24T05:33:41;7.79240036;71.83990479
71551;DHT22;59367;48.414;9.872;2022-11-24T05:34:48;7.808422089;71.35925293
71551;DHT22;59367;48.414;9.872;2022-11-24T05:35:57;7.79240036;71.18377686
71551;DHT22;59367;48.414;9.872;2022-11-24T05:37:05;7.79240036;71.10595703
71551;DHT22;59367;48.414;9.872;2022-11-24T05:38:12;7.77904892;71.1151123
71551;DHT22;59367;48.414;9.872;2022-11-24T05:39:19;7.765697479;70.82214355
71551;DHT22;59367;48.414;9.872;2022-11-24T05:40:26;7.749675751;70.53985596
71551;DHT22;59367;48.414;9.872;2022-11-24T05:41:33;7.720302582;70.4284668
71551;DHT22;59367;48.414;9.872;2022-11-24T05:42:40;7.720302582;70.22705078
71551;DHT22;59367;48.414;9.872;2022-11-24T05:43:47;7.706951141;70.03173828
71551;DHT22;59367;48.414;9.872;2022-11-24T05:44:54;7.690929413;69.78759766
71551;DHT22;59367;48.414;9.872;2022-11-24T05:46:04;7.677577972;69.51751709
71551;DHT22;59367;48.414;9.872;2022-11-24T05:47:10;7.634853363;69.59533691
71551;DHT22;59367;48.414;9.872;2022-11-24T05:48:17;7.592124939;69.45343018
71551;DHT22;59367;48.414;9.872;2022-11-24T05:49:24;7.592124939;69.39544678
71551;DHT22;59367;48.414;9.872;2022-11-24T05:50:31;7.592124939;69.40460205
71551;DHT22;59367;48.414;9.872;2022-11-24T05:51:38;7.536048889;69.63348389
71551;DHT22;59367;48.414;9.872;2022-11-24T05:52:45;7.509346008;69.67773438
71551;DHT22;59367;48.414;9.872;2022-11-24T05:53:52;7.495994568;69.66552734
71551;DHT22;59367;48.414;9.872;2022-11-24T05:54:59;7.466621399;69.81506348
71551;DHT22;59367;48.414;9.872;2022-11-24T05:56:08;7.43724823;69.86694336
71551;DHT22;59367;48.414;9.872;2022-11-24T05:57:15;7.42389679;69.93103027
71551;DHT22;59367;48.414;9.872;2022-11-24T05:58:22;7.397193909;69.81048584
71551;DHT22;59367;48.414;9.872;2022-11-24T05:59:28;7.367816925;69.97070313